Latest Weather Observations for Cape Naturaliste

IDW60801

Issued at 10:14 am WST Monday 30 November 2020 (issued every 10 minutes, with the page automatically refreshed every 10 minutes)

About weather observations | Map of weather stations | Latest weather observations for WA | Other Formats
Station Details ID: 009519 Name: CAPE NATURALISTE Lat: -33.54 Lon: 115.02 Height: 109.0 m
Data from the previous 72 hours. | See also: Recent months at Cape Naturaliste
Date/Time
WST
Temp
°C
App
Temp
°C
Dew
Point
°C
Rel
Hum
%
Delta-T
°C
Wind Press
QNH
hPa
Press
MSL
hPa
Rain since
9am
mm
Dir  Spd
km/h
Gust
km/h
Spd
kts
Gust
kts
30/10:00am 15.6 6.2 4.3 47 5.3 SW 43 63 23 34 1013.8 1013.6 0.0
30/09:45am 16.0 6.6 4.4 46 5.5 SW 43 61 23 33 1013.7 1013.5 0.0
30/09:30am 15.0 5.5 3.8 47 5.2 SSW 43 57 23 31 1013.3 1013.1 0.0
30/09:00am 14.5 5.0 4.8 52 4.5 SSW 44 63 24 34 1012.9 1012.7 4.2
30/08:30am 14.0 4.5 6.6 61 3.6 SSW 46 67 25 36 1012.4 1012.2 4.2
30/08:08am 14.6 6.5 6.9 60 3.8 SSW 39 57 21 31 1012.3 1012.1 4.2
30/08:00am 13.7 4.6 5.8 59 3.8 SSW 43 56 23 30 1012.1 1011.9 4.2
30/07:34am 13.0 3.2 5.2 59 3.6 SSW 46 65 25 35 1011.4 1011.2 4.2
30/07:30am 12.7 2.4 6.3 65 3.1 SW 50 67 27 36 1011.4 1011.2 4.2
30/07:02am 12.6 3.6 6.4 66 3.0 SSW 43 61 23 33 1010.9 1010.7 4.2
30/07:00am 12.5 3.6 7.0 69 2.7 SW 43 57 23 31 1010.8 1010.6 4.2
30/06:30am 13.1 4.9 6.7 65 3.1 SSW 39 57 21 31 1010.2 1009.9 4.2
30/06:00am 11.4 2.4 7.1 75 2.1 SSW 44 63 24 34 1009.6 1009.3 4.2
30/05:41am 12.4 3.5 6.7 68 2.7 SSW 43 61 23 33 1009.0 1008.8 4.0
30/05:30am 12.5 3.8 7.6 72 2.4 SSW 43 54 23 29 1008.7 1008.5 4.0
30/05:03am 13.0 4.1 7.0 67 2.9 SW 43 63 23 34 1008.3 1008.1 3.8
30/05:00am 13.0 4.2 7.2 68 2.8 SW 43 57 23 31 1008.4 1008.2 3.8
30/04:30am 12.9 2.8 5.8 62 3.4 SW 48 63 26 34 1007.9 1007.7 3.8
30/04:17am 12.9 2.9 6.0 63 3.3 SW 48 69 26 37 1007.7 1007.5 3.8
30/04:00am 12.4 1.9 5.8 64 3.1 WSW 50 65 27 35 1007.4 1007.2 3.8
30/03:37am 12.8 2.8 7.7 71 2.5 WSW 50 69 27 37 1007.4 1007.2 3.6
30/03:30am 12.2 1.5 6.3 67 2.8 SW 52 69 28 37 1007.3 1007.1 3.6
30/03:07am 13.5 2.9 7.1 65 3.1 SW 52 70 28 38 1007.1 1006.9 3.6
30/03:00am 13.3 2.5 6.2 62 3.4 SW 52 69 28 37 1006.9 1006.7 3.6
30/02:48am 13.3 3.1 7.1 66 3.0 SW 50 69 27 37 1006.7 1006.5 3.6
30/02:30am 13.5 3.5 7.7 68 2.9 SW 50 65 27 35 1006.6 1006.4 3.6
30/02:07am 12.6 3.0 7.9 73 2.3 SW 48 70 26 38 1006.5 1006.3 3.6
30/02:00am 12.2 1.8 7.9 75 2.1 SW 52 69 28 37 1006.5 1006.3 3.6
30/01:30am 12.4 3.9 10.5 88 1.0 SW 46 65 25 35 1006.3 1006.1 3.6
30/01:06am 13.0 3.5 11.2 89 1.0 SW 52 70 28 38 1006.4 1006.2 3.4
30/01:00am 12.6 2.6 10.7 88 1.0 SW 54 70 29 38 1006.3 1006.1 3.4
30/12:30am 12.8 4.4 11.0 89 0.9 SW 46 69 25 37 1006.5 1006.3 3.2
30/12:05am 14.0 6.4 11.9 87 1.1 WSW 43 65 23 35 1006.4 1006.2 2.8
30/12:00am 14.0 6.1 11.3 84 1.4 WSW 44 57 24 31 1006.8 1006.6 1.8
 
Date/Time
WST
Temp
°C
App
Temp
°C
Dew
Point
°C
Rel
Hum
%
Delta-T
°C
Wind Press
QNH
hPa
Press
MSL
hPa
Rain since
9am
mm
Dir  Spd
km/h
Gust
km/h
Spd
kts
Gust
kts
29/11:45pm 15.2 7.5 11.4 78 2.0 WSW 43 65 23 35 1006.6 1006.4 1.6
29/11:30pm 15.9 8.7 10.4 70 2.9 W 39 54 21 29 1006.8 1006.6 1.6
29/11:00pm 15.5 8.6 10.3 71 2.8 W 37 46 20 25 1007.1 1006.9 1.6
29/10:30pm 15.2 7.5 10.0 71 2.7 WSW 41 56 22 30 1007.4 1007.2 1.6
29/10:00pm 15.3 8.6 11.1 76 2.3 WSW 37 50 20 27 1007.7 1007.5 1.6
29/09:30pm 14.3 7.2 10.9 80 1.8 WSW 39 52 21 28 1007.7 1007.5 1.6
29/09:00pm 13.8 7.5 11.1 84 1.4 WSW 35 46 19 25 1008.0 1007.8 1.6
29/08:30pm 14.8 7.7 11.0 78 2.0 W 39 50 21 27 1008.1 1007.9 1.2
29/08:00pm 15.8 9.1 12.2 79 2.0 WSW 39 54 21 29 1008.0 1007.8 1.0
29/07:30pm 14.9 8.5 10.7 76 2.2 W 35 50 19 27 1008.1 1007.9 1.0
29/07:00pm 15.5 8.7 11.9 79 2.0 W 39 56 21 30 1008.3 1008.1 1.0
29/06:56pm 16.5 10.6 11.2 71 2.9 W 33 56 18 30 1008.0 1007.8 0.8
29/06:30pm 16.1 10.8 9.8 66 3.3 WNW 28 35 15 19 1008.1 1007.9 0.8
29/06:00pm 15.9 10.6 9.8 67 3.2 WNW 28 35 15 19 1008.4 1008.2 0.8
29/05:30pm 16.2 10.7 9.2 63 3.6 WNW 28 35 15 19 1008.7 1008.5 0.8
29/05:00pm 16.4 10.9 9.3 63 3.7 W 28 35 15 19 1008.9 1008.7 0.8
29/04:30pm 16.5 12.9 10.4 67 3.2 WNW 20 28 11 15 1008.6 1008.4 0.8
29/04:00pm 17.0 14.4 10.6 66 3.4 WNW 15 20 8 11 1009.1 1008.9 0.8
29/03:30pm 17.5 16.0 12.0 70 3.0 W 11 19 6 10 1009.2 1009.0 0.8
29/03:00pm 15.4 14.5 12.7 84 1.5 WSW 9 15 5 8 1009.6 1009.3 0.8
29/02:30pm 15.0 13.2 12.1 83 1.6 WSW 13 17 7 9 1010.0 1009.7 0.8
29/02:00pm 14.7 12.3 11.5 81 1.7 SW 15 20 8 11 1010.3 1010.0 0.4
29/01:30pm 15.3 12.7 10.7 74 2.4 SW 15 20 8 11 1010.2 1009.9 0.0
29/01:00pm 16.8 12.2 9.5 62 3.8 WSW 24 32 13 17 1010.6 1010.4 0.0
29/12:30pm 16.6 11.1 9.1 61 3.9 WSW 28 39 15 21 1011.6 1011.4 0.0
29/12:00pm 17.8 12.3 9.2 57 4.5 SW 28 35 15 19 1011.6 1011.4 0.0
29/11:30am 17.6 12.4 9.0 57 4.5 SW 26 33 14 18 1011.4 1011.2 0.0
29/11:00am 16.9 12.0 8.3 57 4.4 SW 24 32 13 17 1011.9 1011.7 0.0
29/10:30am 18.1 13.8 9.5 57 4.5 SW 22 30 12 16 1011.9 1011.7 0.0
29/10:00am 17.5 12.8 9.4 59 4.3 SW 24 33 13 18 1012.2 1012.0 0.0
29/09:30am 18.3 14.3 9.1 55 4.8 SSW 20 28 11 15 1012.2 1012.0 0.0
29/09:00am 16.5 13.4 8.7 60 4.0 SSW 15 20 8 11 1012.3 1012.1 0.0
29/08:30am 16.2 12.7 7.4 56 4.4 S 15 22 8 12 1012.6 1012.4 0.0
29/08:00am 16.1 12.8 8.1 59 4.1 S 15 20 8 11 1012.4 1012.2 0.0
29/07:30am 15.0 11.8 8.3 64 3.4 SSE 15 20 8 11 1012.4 1012.2 0.0
29/07:00am 13.9 11.0 8.1 68 2.9 SE 13 19 7 10 1012.5 1012.3 0.0
29/06:30am 12.8 9.8 7.7 71 2.5 SE 13 17 7 9 1012.9 1012.7 0.0
29/06:00am 11.9 8.8 7.2 73 2.3 SSE 13 17 7 9 1013.2 1013.0 0.0
29/05:30am 11.5 8.3 6.8 73 2.2 SE 13 19 7 10 1013.0 1012.8 0.0
29/05:00am 11.4 7.8 6.7 73 2.2 S 15 20 8 11 1013.4 1013.2 0.0
29/04:30am 11.4 7.5 7.1 75 2.1 S 17 22 9 12 1012.8 1012.6 0.0
29/04:00am 11.6 7.7 7.1 74 2.2 S 17 20 9 11 1012.8 1012.6 0.0
29/03:30am 11.4 7.4 6.5 72 2.3 S 17 24 9 13 1012.6 1012.4 0.0
29/03:00am 10.8 6.7 6.2 73 2.2 SSE 17 22 9 12 1013.1 1012.9 0.0
29/02:30am 10.8 6.7 6.2 73 2.2 SE 17 22 9 12 1013.2 1013.0 0.0
29/02:00am 10.9 6.8 6.1 72 2.2 SE 17 24 9 13 1013.7 1013.5 0.0
29/01:30am 11.1 6.7 6.5 73 2.2 SE 19 24 10 13 1014.2 1014.0 0.0
29/01:00am 11.3 7.2 6.2 71 2.4 SSE 17 22 9 12 1015.0 1014.8 0.0
29/12:30am 11.5 7.1 6.4 71 2.4 SSE 19 22 10 12 1015.4 1015.2 0.0
29/12:00am 11.7 7.3 6.4 70 2.5 SSE 19 22 10 12 1016.0 1015.8 0.0
 
Date/Time
WST
Temp
°C
App
Temp
°C
Dew
Point
°C
Rel
Hum
%
Delta-T
°C
Wind Press
QNH
hPa
Press
MSL
hPa
Rain since
9am
mm
Dir  Spd
km/h
Gust
km/h
Spd
kts
Gust
kts
28/11:30pm 11.9 7.4 6.2 68 2.7 SSE 19 24 10 13 1016.7 1016.5 0.0
28/11:00pm 12.2 7.8 6.5 68 2.7 S 19 24 10 13 1016.8 1016.6 0.0
28/10:30pm 12.2 7.6 6.3 67 2.8 S 20 26 11 14 1016.8 1016.6 0.0
28/10:00pm 12.5 7.5 6.5 67 2.9 S 22 30 12 16 1016.9 1016.7 0.0
28/09:30pm 12.6 7.9 6.2 65 3.0 S 20 28 11 15 1017.0 1016.8 0.0
28/09:00pm 12.7 7.7 6.3 65 3.0 S 22 28 12 15 1017.1 1016.9 0.0
28/08:30pm 13.1 7.7 6.5 64 3.2 S 24 33 13 18 1017.2 1017.0 0.0
28/08:00pm 13.6 8.3 6.7 63 3.3 S 24 32 13 17 1017.0 1016.8 0.0
28/07:30pm 13.9 8.2 6.7 62 3.5 S 26 32 14 17 1017.0 1016.8 0.0
28/07:00pm 14.5 8.4 6.8 60 3.8 SSW 28 39 15 21 1017.2 1017.0 0.0
28/06:30pm 15.5 8.7 6.8 56 4.3 SSW 32 41 17 22 1016.8 1016.6 0.0
28/06:00pm 16.4 10.5 7.3 55 4.5 SSW 28 39 15 21 1016.7 1016.5 0.0
28/05:30pm 16.5 10.5 6.9 53 4.8 SSW 28 41 15 22 1017.0 1016.8 0.0
28/05:00pm 17.3 10.7 7.9 54 4.8 SSW 32 44 17 24 1017.2 1017.0 0.0
28/04:30pm 17.8 10.6 7.8 52 5.1 SSW 35 50 19 27 1017.2 1017.0 0.0
28/04:00pm 18.2 11.6 7.6 50 5.4 SSW 32 43 17 23 1017.4 1017.2 0.0
28/03:30pm 19.0 12.9 8.1 49 5.6 SSW 30 39 16 21 1017.6 1017.4 0.0
28/03:00pm 19.4 13.5 7.5 46 6.1 SSW 28 39 15 21 1017.8 1017.6 0.0
28/02:30pm 19.5 13.3 7.9 47 6.0 SW 30 39 16 21 1018.0 1017.8 0.0
28/02:00pm 19.5 13.5 6.9 44 6.4 SW 28 37 15 20 1018.4 1018.3 0.0
28/01:30pm 19.7 13.6 6.8 43 6.5 SW 28 39 15 21 1018.5 1018.4 0.0
28/01:00pm 20.1 13.8 7.5 44 6.5 SW 30 37 16 20 1018.3 1018.2 0.0
28/12:30pm 20.8 15.4 7.8 43 6.8 SW 26 37 14 20 1018.8 1018.7 0.0
28/12:00pm 20.5 15.3 7.2 42 6.8 SW 24 33 13 18 1019.2 1019.0 0.0
28/11:30am 20.4 15.6 7.4 43 6.7 SW 22 32 12 17 1019.4 1019.2 0.0
28/11:00am 19.8 15.1 7.9 46 6.1 SW 22 33 12 18 1019.6 1019.4 0.0
28/10:30am 19.1 14.3 7.5 47 5.9 SSW 22 32 12 17 1020.0 1019.8 0.0
28/10:00am 18.3 13.8 6.2 45 6.0 SW 19 28 10 15 1019.7 1019.5 0.0
28/09:30am 17.0 12.8 5.9 48 5.4 SSW 17 24 9 13 1020.0 1019.8 0.0
28/09:00am 16.3 12.6 6.2 51 4.9 SSW 15 22 8 12 1020.1 1019.9 0.0
28/08:30am 17.3 13.7 6.8 50 5.2 SE 15 22 8 12 1020.2 1020.0 0.0
28/08:00am 15.9 12.3 6.6 54 4.6 SSE 15 22 8 12 1020.3 1020.1 0.0
28/07:30am 15.2 11.2 6.7 57 4.2 SSE 17 22 9 12 1019.9 1019.7 0.0
28/07:00am 14.1 10.0 6.2 59 3.8 SSE 17 26 9 14 1019.6 1019.4 0.0
28/06:30am 13.9 9.4 7.0 63 3.4 SSE 20 28 11 15 1019.3 1019.1 0.0
28/06:00am 12.9 7.9 6.5 65 3.1 SSE 22 28 12 15 1019.1 1018.9 0.0
28/05:30am 11.5 6.6 5.2 65 2.9 SSE 20 24 11 13 1018.8 1018.7 0.0
28/05:00am 11.4 6.1 5.1 65 2.9 S 22 26 12 14 1019.0 1018.8 0.0
28/04:30am 11.8 6.4 4.5 61 3.3 S 22 26 12 14 1018.6 1018.5 0.0
28/04:00am 12.5 7.7 5.7 63 3.2 S 20 32 11 17 1018.4 1018.3 0.0
28/03:30am 11.7 6.6 6.0 68 2.7 S 22 30 12 16 1018.2 1018.0 0.0
28/03:00am 11.4 6.5 5.1 65 2.9 S 20 24 11 13 1018.3 1018.2 0.0
28/02:30am 12.0 7.2 5.6 65 3.0 S 20 26 11 14 1018.1 1017.9 0.0
28/02:00am 12.0 6.8 5.4 64 3.1 S 22 30 12 16 1018.0 1017.8 0.0
28/01:30am 11.7 6.5 5.3 65 3.0 S 22 28 12 15 1018.2 1018.0 0.0
28/01:00am 11.6 6.0 5.3 65 2.9 S 24 32 13 17 1018.4 1018.3 0.0
28/12:30am 11.5 6.4 6.2 70 2.5 S 22 28 12 15 1018.6 1018.5 0.0
28/12:00am 11.6 6.2 6.5 71 2.4 S 24 30 13 16 1018.8 1018.7 0.0
 
Date/Time
WST
Temp
°C
App
Temp
°C
Dew
Point
°C
Rel
Hum
%
Delta-T
°C
Wind Press
QNH
hPa
Press
MSL
hPa
Rain since
9am
mm
Dir  Spd
km/h
Gust
km/h
Spd
kts
Gust
kts
27/11:30pm 11.7 6.1 7.0 73 2.3 S 26 35 14 19 1018.7 1018.6 0.0
27/11:00pm 11.5 6.3 7.2 75 2.1 S 24 33 13 18 1018.6 1018.5 0.0
27/10:30pm 12.3 6.9 6.4 67 2.8 S 24 32 13 17 1018.7 1018.6 0.0
27/10:00pm 12.4 7.1 6.9 69 2.6 S 24 32 13 17 1018.6 1018.5 0.0
27/09:30pm 12.3 7.9 7.6 73 2.3 S 20 30 11 16 1018.4 1018.3 0.0
27/09:00pm 12.6 6.5 8.1 74 2.2 S 30 41 16 22 1018.0 1017.8 0.0
27/08:30pm 13.2 8.9 7.0 66 3.0 S 19 24 10 13 1017.6 1017.4 0.0
27/08:00pm 13.1 8.6 6.9 66 3.0 S 20 26 11 14 1017.3 1017.1 0.0
27/07:30pm 13.5 8.2 6.8 64 3.3 SSW 24 35 13 19 1017.0 1016.8 0.0
27/07:00pm 14.6 8.3 7.4 62 3.6 SSW 30 44 16 24 1016.5 1016.3 0.0
27/06:30pm 14.9 8.9 7.2 60 3.8 SSW 28 39 15 21 1016.3 1016.1 0.0
27/06:00pm 15.5 9.5 7.0 57 4.2 SSW 28 41 15 22 1015.9 1015.7 0.0
27/05:30pm 15.4 8.0 6.9 57 4.2 SSW 35 46 19 25 1015.6 1015.4 0.0
27/05:15pm 15.8 9.3 8.3 61 3.8 SSW 32 50 17 27 1015.5 1015.3 0.0
27/05:00pm 16.7 9.4 7.4 54 4.7 SSW 35 46 19 25 1015.4 1015.2 0.0
27/04:30pm 17.8 11.1 7.2 50 5.3 SSW 32 44 17 24 1015.3 1015.1 0.0
27/04:00pm 17.5 11.1 8.6 56 4.6 SSW 32 43 17 23 1015.3 1015.1 0.0
27/03:30pm 18.3 12.8 9.1 55 4.8 SSW 28 37 15 20 1015.2 1015.0 0.0
27/03:00pm 17.8 11.8 8.6 55 4.8 SSW 30 39 16 21 1015.2 1015.0 0.0
27/02:30pm 18.2 12.9 9.8 58 4.5 SSW 28 39 15 21 1015.1 1014.9 0.0
27/02:00pm 17.8 12.1 9.7 59 4.3 SSW 30 39 16 21 1015.2 1015.0 0.0
27/01:30pm 17.5 10.9 10.1 62 3.9 SSW 35 48 19 26 1015.2 1015.0 0.0
27/01:00pm 19.9 14.2 11.1 57 4.8 SSW 32 43 17 23 1015.0 1014.8 0.0
27/12:30pm 19.4 14.8 12.4 64 3.9 SSW 28 39 15 21 1015.2 1015.0 0.0
27/12:00pm 20.0 15.6 11.8 59 4.6 SSW 26 35 14 19 1015.3 1015.1 0.0
27/11:30am 16.9 13.1 12.4 75 2.5 SSW 24 33 13 18 1015.6 1015.4 0.0
27/11:00am 19.8 15.4 11.8 60 4.5 SW 26 33 14 18 1015.6 1015.4 0.0
27/10:30am 20.9 17.9 12.1 57 5.0 SW 19 28 10 15 1015.6 1015.4 0.0

Other formats

Comma delimited format used in spreadsheet applications
http://www.bom.gov.au/fwo/IDW60801/IDW60801.94600.axf

JavaScript Object Notation format (JSON) in row-major order
http://www.bom.gov.au/fwo/IDW60801/IDW60801.94600.json

Data quality

Most of these data are generated automatically and are frequently updated. Quality checks on data are not normally performed. It is possible for incorrect values to appear. Refer to information at About Latest Weather Observations and please check the disclaimer before using these data.